createdAt,value
2022-08-26T00:01:56.035Z,26.14
2022-08-26T00:04:25.207Z,26.14
2022-08-26T00:06:56.753Z,26.25
2022-08-26T00:09:25.620Z,26.25
2022-08-26T00:11:54.244Z,26.22
2022-08-26T00:14:24.167Z,26.25
2022-08-26T00:16:55.376Z,26.13
2022-08-26T00:19:23.177Z,26.20
2022-08-26T00:21:50.749Z,26.16
2022-08-26T00:24:20.263Z,26.09
2022-08-26T00:26:47.488Z,25.96
2022-08-26T00:29:14.960Z,26.02
2022-08-26T00:31:42.466Z,26.03
2022-08-26T00:34:12.201Z,26.01
2022-08-26T00:36:40.758Z,26.03
2022-08-26T00:39:08.930Z,26.01
2022-08-26T00:41:39.691Z,25.99
2022-08-26T00:44:08.839Z,25.93
2022-08-26T00:46:46.668Z,25.82
2022-08-26T00:49:20.471Z,25.88
2022-08-26T00:51:55.990Z,25.80
2022-08-26T00:54:27.651Z,25.75
2022-08-26T00:57:05.138Z,25.69
2022-08-26T00:59:36.368Z,25.76
2022-08-26T01:02:06.647Z,25.77
2022-08-26T01:04:49.830Z,25.78
2022-08-26T01:07:22.434Z,25.72
2022-08-26T01:09:50.226Z,25.71
2022-08-26T01:12:22.001Z,25.72
2022-08-26T01:14:50.065Z,25.74
2022-08-26T01:17:17.550Z,25.72
2022-08-26T01:19:53.298Z,25.66
2022-08-26T01:22:30.850Z,25.58
2022-08-26T01:25:03.573Z,25.57
2022-08-26T01:27:32.572Z,25.61
2022-08-26T01:30:00.419Z,25.48
2022-08-26T01:32:28.463Z,25.46
2022-08-26T01:34:55.353Z,25.19
2022-08-26T01:37:27.521Z,25.21
2022-08-26T01:39:56.678Z,25.16
2022-08-26T01:42:27.301Z,25.03
2022-08-26T01:45:08.686Z,24.92
2022-08-26T01:47:36.970Z,24.87
2022-08-26T01:50:11.154Z,24.87
2022-08-26T01:52:45.662Z,24.94
2022-08-26T01:55:27.629Z,24.95
2022-08-26T01:58:05.775Z,24.90
2022-08-26T02:00:34.679Z,24.80
2022-08-26T02:03:17.238Z,24.75
2022-08-26T02:06:01.236Z,24.77
2022-08-26T02:08:33.514Z,24.78
2022-08-26T02:11:00.624Z,24.82
2022-08-26T02:13:30.503Z,24.74
2022-08-26T02:16:00.790Z,24.64
2022-08-26T02:18:31.027Z,24.51
2022-08-26T02:20:57.924Z,24.59
2022-08-26T02:23:26.188Z,24.66
2022-08-26T02:26:21.625Z,24.65
2022-08-26T02:29:07.876Z,24.63
2022-08-26T02:31:34.887Z,24.53
2022-08-26T02:34:26.128Z,24.60
2022-08-26T02:36:58.167Z,24.73
2022-08-26T02:39:25.367Z,24.72
2022-08-26T02:41:52.709Z,24.78
2022-08-26T02:44:19.813Z,24.78
2022-08-26T02:46:47.442Z,24.75
2022-08-26T02:49:16.304Z,24.64
2022-08-26T02:51:44.131Z,24.63
2022-08-26T02:54:11.048Z,24.46
2022-08-26T02:56:38.314Z,24.45
2022-08-26T02:59:05.540Z,24.38
2022-08-26T03:01:36.105Z,24.30
2022-08-26T03:04:05.921Z,24.30
2022-08-26T03:06:33.112Z,24.21
2022-08-26T03:09:00.007Z,24.18
2022-08-26T03:11:30.952Z,24.00
2022-08-26T03:14:00.583Z,24.00
2022-08-26T03:16:37.806Z,23.91
2022-08-26T03:19:08.021Z,23.92
2022-08-26T03:21:36.863Z,23.88
2022-08-26T03:24:05.441Z,23.87
2022-08-26T03:26:32.374Z,23.95
2022-08-26T03:29:17.498Z,23.96
2022-08-26T03:31:47.067Z,23.98
2022-08-26T03:34:14.547Z,24.05
2022-08-26T03:36:42.059Z,24.03
2022-08-26T03:39:12.495Z,23.95
2022-08-26T03:41:40.457Z,23.96
2022-08-26T03:44:11.539Z,23.97
2022-08-26T03:46:39.617Z,23.86
2022-08-26T03:49:07.517Z,23.87
2022-08-26T03:51:38.936Z,23.86
2022-08-26T03:54:08.342Z,23.90
2022-08-26T03:56:36.631Z,23.94
2022-08-26T03:59:05.248Z,23.89
2022-08-26T04:01:35.990Z,23.75
2022-08-26T04:04:03.847Z,23.66
2022-08-26T04:06:38.219Z,23.67
2022-08-26T04:09:09.916Z,23.68
2022-08-26T04:11:39.514Z,23.65
2022-08-26T04:14:17.669Z,23.59
2022-08-26T04:16:48.249Z,23.51
2022-08-26T04:19:19.453Z,23.53
2022-08-26T04:21:52.562Z,23.52
2022-08-26T04:24:23.166Z,23.55
2022-08-26T04:26:50.406Z,23.56
2022-08-26T04:29:24.000Z,23.60
2022-08-26T04:31:56.045Z,23.70
2022-08-26T04:34:28.999Z,23.70
2022-08-26T04:36:59.929Z,23.70
2022-08-26T04:39:32.012Z,23.77
2022-08-26T04:42:00.601Z,23.79
2022-08-26T04:44:47.656Z,23.89
2022-08-26T04:47:14.517Z,23.86
2022-08-26T04:49:41.468Z,23.92
2022-08-26T04:52:08.387Z,23.98
2022-08-26T04:54:35.227Z,24.02
2022-08-26T04:57:02.401Z,24.00
2022-08-26T04:59:29.313Z,24.07
2022-08-26T05:01:59.318Z,24.09
2022-08-26T05:04:26.397Z,24.07
2022-08-26T05:06:56.754Z,24.10
2022-08-26T05:09:26.664Z,23.98
2022-08-26T05:11:53.987Z,24.04
2022-08-26T05:14:23.084Z,24.02
2022-08-26T05:16:50.547Z,23.99
2022-08-26T05:19:18.956Z,23.92
2022-08-26T05:21:48.492Z,23.98
2022-08-26T05:24:16.496Z,24.02
2022-08-26T05:26:44.640Z,24.05
2022-08-26T05:29:12.257Z,24.04
2022-08-26T05:31:39.172Z,24.03
2022-08-26T05:34:06.174Z,24.09
2022-08-26T05:36:37.026Z,24.10
2022-08-26T05:39:06.215Z,24.10
2022-08-26T05:41:38.407Z,24.16
2022-08-26T05:44:10.422Z,24.26
2022-08-26T05:46:39.656Z,24.39
2022-08-26T05:49:12.849Z,24.81
2022-08-26T05:51:41.603Z,25.48
2022-08-26T05:54:10.452Z,26.10
2022-08-26T05:56:39.237Z,26.73
2022-08-26T05:59:14.201Z,27.46
2022-08-26T06:01:43.383Z,28.36
2022-08-26T06:04:11.455Z,29.37
2022-08-26T06:06:41.331Z,30.40
2022-08-26T06:09:11.092Z,31.39
2022-08-26T06:11:39.675Z,31.96
2022-08-26T06:14:08.110Z,32.52
2022-08-26T06:16:40.992Z,33.10
2022-08-26T06:19:11.606Z,33.30
2022-08-26T06:21:41.990Z,33.41
2022-08-26T06:24:31.550Z,34.17
2022-08-26T06:27:02.534Z,34.22
2022-08-26T06:29:34.463Z,35.01
2022-08-26T06:32:04.707Z,35.84
2022-08-26T06:34:32.652Z,36.58
2022-08-26T06:37:02.690Z,36.95
2022-08-26T06:39:31.563Z,37.39
2022-08-26T06:42:00.244Z,38.40
2022-08-26T06:44:36.660Z,37.82
2022-08-26T06:47:03.664Z,38.04
2022-08-26T06:49:30.573Z,39.02
2022-08-26T06:51:58.384Z,40.23
2022-08-26T06:54:26.953Z,40.97
2022-08-26T06:56:55.866Z,41.85
2022-08-26T06:59:23.198Z,42.08
2022-08-26T07:01:50.226Z,41.41
2022-08-26T07:04:22.038Z,40.04
2022-08-26T07:06:53.009Z,37.61
2022-08-26T07:09:22.692Z,35.53
2022-08-26T07:11:51.336Z,34.29
2022-08-26T07:14:19.420Z,33.20
2022-08-26T07:16:50.143Z,32.49
2022-08-26T07:19:27.559Z,32.04
2022-08-26T07:22:07.560Z,31.89
2022-08-26T07:24:42.582Z,31.58
2022-08-26T07:27:21.600Z,31.27
2022-08-26T07:29:49.024Z,31.94
2022-08-26T07:32:20.146Z,33.31
2022-08-26T07:34:52.474Z,34.45
2022-08-26T07:37:25.941Z,35.67
2022-08-26T07:39:55.778Z,35.69
2022-08-26T07:42:23.493Z,35.82
2022-08-26T07:44:50.991Z,37.04
2022-08-26T07:47:25.753Z,38.50
2022-08-26T07:49:56.236Z,39.98
2022-08-26T07:52:26.898Z,40.39
2022-08-26T07:54:56.175Z,40.31
2022-08-26T07:57:24.415Z,40.86
2022-08-26T07:59:55.115Z,40.53
2022-08-26T08:02:28.032Z,41.31
2022-08-26T08:04:56.858Z,42.10
2022-08-26T08:07:38.570Z,42.75
2022-08-26T08:10:17.337Z,43.37
2022-08-26T08:12:44.631Z,43.07
2022-08-26T08:15:13.781Z,42.57
2022-08-26T08:17:45.193Z,42.72
2022-08-26T08:20:14.226Z,42.80
2022-08-26T08:22:42.018Z,43.62
2022-08-26T08:25:11.586Z,45.19
2022-08-26T08:27:40.601Z,46.49
2022-08-26T08:30:09.163Z,47.34
2022-08-26T08:32:40.339Z,48.36
2022-08-26T08:35:10.804Z,47.90
2022-08-26T08:37:38.689Z,47.51
2022-08-26T08:40:07.907Z,47.86
2022-08-26T08:42:56.567Z,47.47
2022-08-26T08:45:49.638Z,44.52
2022-08-26T08:48:27.780Z,41.92
2022-08-26T08:51:23.337Z,40.47
2022-08-26T08:53:55.036Z,38.69
2022-08-26T08:56:39.523Z,37.83
2022-08-26T08:59:31.950Z,36.98
2022-08-26T09:02:11.430Z,36.33
2022-08-26T09:05:21.898Z,35.14
2022-08-26T09:08:12.793Z,34.49
2022-08-26T09:10:59.545Z,34.06
2022-08-26T09:13:29.063Z,34.04
2022-08-26T09:16:07.450Z,34.05
2022-08-26T09:18:46.163Z,34.32
2022-08-26T09:21:16.717Z,34.84
2022-08-26T09:23:49.292Z,35.56
2022-08-26T09:26:40.834Z,36.84
2022-08-26T09:29:29.549Z,40.00
2022-08-26T09:32:24.090Z,45.89
2022-08-26T09:35:10.836Z,50.35
2022-08-26T09:40:36.161Z,51.36
2022-08-26T09:43:22.623Z,49.08
2022-08-26T09:46:10.040Z,48.37
2022-08-26T09:48:41.001Z,49.96
2022-08-26T09:51:32.662Z,52.39
2022-08-26T09:54:02.656Z,53.61
2022-08-26T09:56:35.664Z,54.13
2022-08-26T09:59:03.548Z,53.10
2022-08-26T10:01:43.695Z,54.55
2022-08-26T10:04:24.707Z,54.13
2022-08-26T10:07:08.157Z,55.03
2022-08-26T10:09:40.504Z,55.66
2022-08-26T10:12:13.816Z,55.59
2022-08-26T10:14:49.969Z,54.71
2022-08-26T10:17:26.619Z,54.91
2022-08-26T10:20:09.816Z,54.44
2022-08-26T10:23:14.046Z,53.55
2022-08-26T10:25:59.161Z,51.77
2022-08-26T10:29:06.205Z,49.79
2022-08-26T10:32:03.746Z,47.23
2022-08-26T10:34:33.018Z,44.62
2022-08-26T10:37:16.771Z,43.28
2022-08-26T10:40:05.555Z,41.51
2022-08-26T10:42:37.614Z,40.65
2022-08-26T10:45:28.582Z,39.79
2022-08-26T10:48:12.364Z,39.06
2022-08-26T10:50:44.110Z,38.47
2022-08-26T10:53:36.291Z,38.24
2022-08-26T10:56:47.005Z,37.82
2022-08-26T10:59:29.525Z,37.93
2022-08-26T11:02:37.137Z,37.69
2022-08-26T11:05:16.038Z,37.75
2022-08-26T11:07:46.042Z,37.07
2022-08-26T11:10:22.470Z,36.91
2022-08-26T11:12:54.883Z,36.88
2022-08-26T11:15:24.526Z,36.55
2022-08-26T11:17:51.774Z,36.20
2022-08-26T11:20:39.117Z,35.44
2022-08-26T11:23:23.794Z,34.48
2022-08-26T11:25:57.155Z,34.42
2022-08-26T11:28:34.590Z,34.55
2022-08-26T11:31:02.519Z,33.93
2022-08-26T11:33:57.283Z,33.34
2022-08-26T11:36:45.390Z,33.46
2022-08-26T11:39:29.717Z,33.27
2022-08-26T11:42:01.939Z,33.14
2022-08-26T11:44:41.606Z,32.91
2022-08-26T11:47:26.738Z,32.88
2022-08-26T11:50:34.149Z,32.63
2022-08-26T11:53:06.054Z,32.64
2022-08-26T11:55:36.627Z,32.35
2022-08-26T11:58:07.323Z,32.63
2022-08-26T12:00:50.607Z,32.66
2022-08-26T12:03:44.351Z,32.64
2022-08-26T12:06:45.263Z,32.62
2022-08-26T12:09:34.422Z,32.88
2022-08-26T12:12:16.000Z,33.05
2022-08-26T12:14:44.241Z,33.27
2022-08-26T12:17:26.280Z,33.25
2022-08-26T12:19:53.190Z,32.99
2022-08-26T12:22:34.552Z,33.00
2022-08-26T12:25:08.602Z,32.74
2022-08-26T12:27:41.537Z,32.69
2022-08-26T12:30:24.305Z,32.73
2022-08-26T12:33:21.960Z,32.76
2022-08-26T12:35:56.355Z,32.84
2022-08-26T12:38:25.531Z,32.89
2022-08-26T12:40:52.960Z,32.94
2022-08-26T12:43:45.765Z,32.87
2022-08-26T12:46:28.152Z,32.87
2022-08-26T12:49:01.126Z,32.84
2022-08-26T12:51:32.234Z,32.93
2022-08-26T12:53:59.994Z,32.99
2022-08-26T12:56:38.987Z,32.74
2022-08-26T12:59:18.027Z,32.80
2022-08-26T13:01:46.692Z,32.81
2022-08-26T13:04:46.226Z,32.73
2022-08-26T13:07:31.221Z,32.59
2022-08-26T13:09:59.821Z,32.59
2022-08-26T13:12:41.021Z,32.64
2022-08-26T13:15:08.475Z,32.59
2022-08-26T13:17:36.002Z,32.65
2022-08-26T13:20:04.425Z,32.73
2022-08-26T13:22:32.103Z,32.59
2022-08-26T13:24:59.158Z,32.61
2022-08-26T13:27:27.922Z,32.72
2022-08-26T13:29:57.573Z,32.76
2022-08-26T13:32:27.564Z,32.65
2022-08-26T13:34:56.661Z,32.98
2022-08-26T13:37:24.347Z,33.04
2022-08-26T13:40:02.261Z,33.21
2022-08-26T13:42:29.698Z,33.28
2022-08-26T13:44:58.077Z,33.40
2022-08-26T13:47:25.898Z,33.38
2022-08-26T13:49:55.108Z,33.33
2022-08-26T13:52:30.217Z,33.54
2022-08-26T13:55:00.181Z,33.62
2022-08-26T13:57:29.855Z,33.63
2022-08-26T13:59:58.921Z,33.66
2022-08-26T14:02:27.711Z,33.80
2022-08-26T14:04:55.279Z,33.87
2022-08-26T14:07:22.661Z,33.88
2022-08-26T14:09:49.690Z,33.80
2022-08-26T14:12:16.760Z,33.70
2022-08-26T14:14:43.706Z,33.63
2022-08-26T14:17:13.612Z,33.42
2022-08-26T14:19:45.589Z,33.40
2022-08-26T14:22:15.959Z,33.54
2022-08-26T14:24:43.786Z,33.14
2022-08-26T14:27:12.414Z,33.04
2022-08-26T14:29:39.823Z,32.79
2022-08-26T14:32:23.223Z,32.87
2022-08-26T14:34:50.866Z,32.73
2022-08-26T14:37:18.600Z,32.60
2022-08-26T14:39:46.285Z,32.66
2022-08-26T14:42:15.255Z,32.72
2022-08-26T14:44:46.506Z,32.52
2022-08-26T14:47:13.443Z,32.50
2022-08-26T14:49:40.344Z,32.44
2022-08-26T14:52:07.213Z,32.49
2022-08-26T14:54:34.138Z,32.23
2022-08-26T14:57:10.156Z,32.27
2022-08-26T14:59:41.305Z,32.25
2022-08-26T15:02:13.596Z,32.29
2022-08-26T15:04:41.557Z,32.21
2022-08-26T15:07:12.839Z,32.08
2022-08-26T15:09:39.905Z,31.83
2022-08-26T15:12:07.038Z,31.63
2022-08-26T15:14:34.258Z,31.58
2022-08-26T15:17:01.332Z,31.41
2022-08-26T15:19:28.734Z,31.33
2022-08-26T15:21:55.581Z,31.24
2022-08-26T15:24:25.346Z,31.41
2022-08-26T15:26:52.991Z,31.48
2022-08-26T15:29:20.027Z,31.20
2022-08-26T15:31:48.625Z,31.08
2022-08-26T15:34:17.191Z,31.08
2022-08-26T15:36:47.311Z,30.90
2022-08-26T15:39:16.144Z,30.69
2022-08-26T15:41:43.462Z,30.33
2022-08-26T15:44:11.468Z,30.16
2022-08-26T15:46:38.574Z,30.37
2022-08-26T15:49:06.929Z,30.47
2022-08-26T15:51:45.237Z,30.52
2022-08-26T15:54:14.465Z,30.31
2022-08-26T15:56:41.409Z,30.37
2022-08-26T15:59:11.474Z,30.12
2022-08-26T16:01:39.082Z,30.27
2022-08-26T16:04:06.734Z,30.37
2022-08-26T16:06:38.624Z,30.55
2022-08-26T16:09:06.989Z,30.56
2022-08-26T16:11:35.831Z,30.50
2022-08-26T16:14:04.514Z,30.33
2022-08-26T16:16:32.160Z,30.31
2022-08-26T16:19:00.565Z,30.23
2022-08-26T16:21:30.706Z,30.16
2022-08-26T16:23:58.825Z,29.98
2022-08-26T16:26:29.821Z,29.88
2022-08-26T16:28:56.687Z,29.72
2022-08-26T16:31:23.855Z,29.56
2022-08-26T16:33:51.303Z,29.47
2022-08-26T16:36:18.200Z,29.38
2022-08-26T16:38:55.212Z,29.24
2022-08-26T16:41:28.243Z,28.72
2022-08-26T16:43:55.750Z,28.94
2022-08-26T16:46:25.665Z,28.36
2022-08-26T16:48:55.918Z,28.13
2022-08-26T16:51:26.795Z,28.08
2022-08-26T16:53:57.119Z,28.02
2022-08-26T16:56:30.613Z,27.91
2022-08-26T16:59:02.511Z,27.91
2022-08-26T17:01:29.897Z,27.64
2022-08-26T17:03:57.068Z,27.55
2022-08-26T17:06:23.947Z,27.41
2022-08-26T17:08:50.835Z,27.47
2022-08-26T17:11:17.729Z,27.45
2022-08-26T17:13:44.595Z,27.80
2022-08-26T17:16:13.020Z,27.90
2022-08-26T17:18:39.961Z,28.00
2022-08-26T17:21:10.502Z,27.89
2022-08-26T17:23:38.548Z,27.77
2022-08-26T17:26:05.689Z,27.71
2022-08-26T17:28:32.962Z,27.14
2022-08-26T17:31:01.059Z,27.65
2022-08-26T17:33:29.321Z,27.64
2022-08-26T17:35:56.955Z,27.67
2022-08-26T17:38:24.951Z,27.63
2022-08-26T17:40:52.829Z,27.61
2022-08-26T17:43:19.729Z,27.62
2022-08-26T17:45:46.999Z,27.56
2022-08-26T17:48:14.070Z,27.55
2022-08-26T17:50:42.621Z,27.53
2022-08-26T17:53:17.804Z,27.44
2022-08-26T17:55:47.184Z,27.42
2022-08-26T17:58:15.621Z,27.48
2022-08-26T18:00:51.822Z,27.48
2022-08-26T18:03:19.481Z,27.39
2022-08-26T18:05:53.063Z,27.13
2022-08-26T18:08:21.002Z,27.24
2022-08-26T18:10:48.519Z,27.34
2022-08-26T18:13:18.315Z,27.20
2022-08-26T18:15:47.245Z,27.20
2022-08-26T18:18:15.362Z,27.10
2022-08-26T18:20:44.522Z,27.16
2022-08-26T18:23:13.174Z,27.06
2022-08-26T18:25:43.361Z,27.04
2022-08-26T18:28:10.587Z,26.93
2022-08-26T18:30:37.896Z,26.92
2022-08-26T18:33:06.693Z,26.89
2022-08-26T18:35:42.357Z,26.94
2022-08-26T18:38:11.240Z,26.90
2022-08-26T18:40:44.134Z,26.93
2022-08-26T18:43:11.743Z,26.81
2022-08-26T18:45:38.823Z,26.81
2022-08-26T18:48:06.052Z,26.79
2022-08-26T18:50:33.031Z,26.76
2022-08-26T18:53:01.863Z,26.69
2022-08-26T18:55:28.786Z,26.78
2022-08-26T18:57:55.696Z,26.63
2022-08-26T19:00:22.739Z,26.65
2022-08-26T19:02:52.008Z,26.24
2022-08-26T19:05:22.112Z,26.07
2022-08-26T19:07:49.076Z,25.96
2022-08-26T19:10:16.151Z,25.96
2022-08-26T19:12:43.466Z,26.20
2022-08-26T19:15:11.631Z,26.42
2022-08-26T19:17:38.632Z,26.39
2022-08-26T19:20:06.350Z,26.26
2022-08-26T19:22:33.625Z,26.39
2022-08-26T19:25:01.250Z,26.33
2022-08-26T19:27:28.235Z,26.27
2022-08-26T19:29:56.339Z,26.29
2022-08-26T19:32:24.246Z,26.34
2022-08-26T19:34:52.645Z,26.24
2022-08-26T19:37:20.339Z,26.12
2022-08-26T19:39:47.622Z,26.09
2022-08-26T19:42:14.576Z,26.11
2022-08-26T19:45:00.254Z,26.09
2022-08-26T19:47:27.277Z,26.08
2022-08-26T19:49:55.628Z,26.06
2022-08-26T19:52:24.193Z,26.01
2022-08-26T19:54:58.169Z,25.99
2022-08-26T19:57:25.179Z,25.96
2022-08-26T19:59:52.174Z,25.93
2022-08-26T20:02:19.263Z,26.00
2022-08-26T20:04:46.509Z,26.04
2022-08-26T20:07:18.561Z,26.09
2022-08-26T20:09:47.293Z,26.12
2022-08-26T20:12:15.044Z,26.00
2022-08-26T20:14:42.759Z,26.04
2022-08-26T20:17:09.837Z,26.01
2022-08-26T20:19:55.639Z,26.00
2022-08-26T20:22:23.677Z,26.05
2022-08-26T20:24:51.571Z,26.09
2022-08-26T20:27:18.623Z,26.14
2022-08-26T20:29:45.519Z,26.11
2022-08-26T20:32:12.546Z,26.10
2022-08-26T20:34:39.932Z,26.08
2022-08-26T20:37:08.364Z,25.94
2022-08-26T20:39:35.366Z,25.88
2022-08-26T20:42:02.650Z,25.88
2022-08-26T20:44:29.477Z,25.84
2022-08-26T20:46:56.636Z,25.87
2022-08-26T20:49:23.558Z,25.90
2022-08-26T20:51:51.402Z,25.88
2022-08-26T20:54:22.982Z,25.90
2022-08-26T20:56:52.795Z,26.03
2022-08-26T20:59:21.133Z,25.98
2022-08-26T21:01:49.255Z,25.76
2022-08-26T21:04:21.968Z,25.89
2022-08-26T21:06:52.314Z,25.65
2022-08-26T21:09:22.556Z,25.32
2022-08-26T21:11:49.789Z,25.31
2022-08-26T21:14:17.847Z,25.78
2022-08-26T21:16:45.979Z,25.92
2022-08-26T21:19:17.947Z,25.80
2022-08-26T21:21:47.336Z,25.78
2022-08-26T21:24:14.841Z,25.78
2022-08-26T21:26:42.072Z,25.63
2022-08-26T21:29:09.817Z,25.60
2022-08-26T21:31:41.033Z,25.67
2022-08-26T21:34:12.011Z,25.57
2022-08-26T21:36:38.992Z,25.44
2022-08-26T21:39:10.755Z,25.53
2022-08-26T21:41:39.273Z,25.62
2022-08-26T21:44:06.176Z,25.53
2022-08-26T21:46:34.425Z,25.52
2022-08-26T21:49:04.128Z,25.50
2022-08-26T21:51:36.139Z,25.46
2022-08-26T21:54:08.728Z,25.46
2022-08-26T21:56:46.521Z,25.42
2022-08-26T21:59:18.592Z,25.47
2022-08-26T22:01:46.036Z,25.49
2022-08-26T22:04:12.933Z,25.44
2022-08-26T22:06:49.444Z,25.49
2022-08-26T22:09:21.969Z,25.35
2022-08-26T22:11:49.583Z,25.28
2022-08-26T22:14:17.959Z,25.32
2022-08-26T22:16:50.214Z,25.29
2022-08-26T22:19:19.964Z,25.31
2022-08-26T22:21:50.041Z,25.29
2022-08-26T22:24:23.816Z,25.31
2022-08-26T22:26:51.803Z,25.23
2022-08-26T22:29:19.845Z,25.21
2022-08-26T22:31:47.049Z,25.13
2022-08-26T22:34:17.234Z,25.07
2022-08-26T22:36:48.081Z,25.06
2022-08-26T22:39:19.781Z,25.09
2022-08-26T22:41:48.478Z,24.99
2022-08-26T22:44:16.779Z,25.13
2022-08-26T22:46:45.056Z,25.19
2022-08-26T22:49:16.256Z,25.21
2022-08-26T22:51:44.749Z,25.15
2022-08-26T22:54:11.880Z,24.98
2022-08-26T22:56:39.210Z,24.91
2022-08-26T22:59:08.122Z,25.01
2022-08-26T23:01:42.301Z,24.99
2022-08-26T23:04:10.896Z,24.93
2022-08-26T23:06:41.603Z,25.01
2022-08-26T23:09:09.384Z,24.85
2022-08-26T23:11:39.689Z,24.79
2022-08-26T23:14:09.210Z,24.86
2022-08-26T23:16:40.679Z,24.84
2022-08-26T23:19:11.398Z,24.83
2022-08-26T23:21:39.805Z,24.87
2022-08-26T23:24:08.166Z,24.79
2022-08-26T23:26:36.855Z,24.66
2022-08-26T23:29:06.336Z,24.48
2022-08-26T23:31:33.865Z,24.47
2022-08-26T23:34:19.359Z,24.47
2022-08-26T23:36:46.331Z,24.34
2022-08-26T23:39:14.624Z,24.37
2022-08-26T23:41:42.262Z,24.39
2022-08-26T23:44:09.140Z,24.33
2022-08-26T23:46:36.238Z,24.33
2022-08-26T23:49:04.705Z,24.34
2022-08-26T23:51:50.371Z,24.36
2022-08-26T23:54:17.224Z,24.39
2022-08-26T23:56:44.231Z,24.31
2022-08-26T23:59:11.238Z,24.27
